sensor_id;sensor_type;location;lat;lon;timestamp;P1;durP1;ratioP1;P2;durP2;ratioP2
35606;SDS011;21729;58.392;15.656;2023-02-15T00:01:25;11.18;;;8.20;;
35606;SDS011;21729;58.392;15.656;2023-02-15T00:03:52;12.60;;;8.20;;
35606;SDS011;21729;58.392;15.656;2023-02-15T00:06:19;11.48;;;8.52;;
35606;SDS011;21729;58.392;15.656;2023-02-15T00:08:48;13.80;;;8.87;;
35606;SDS011;21729;58.392;15.656;2023-02-15T00:11:16;11.48;;;7.45;;
35606;SDS011;21729;58.392;15.656;2023-02-15T00:14:18;10.02;;;7.95;;
35606;SDS011;21729;58.392;15.656;2023-02-15T00:16:47;10.82;;;8.02;;
35606;SDS011;21729;58.392;15.656;2023-02-15T00:19:15;13.35;;;8.35;;
35606;SDS011;21729;58.392;15.656;2023-02-15T00:21:44;11.23;;;8.50;;
35606;SDS011;21729;58.392;15.656;2023-02-15T00:24:14;11.02;;;8.52;;
35606;SDS011;21729;58.392;15.656;2023-02-15T00:26:43;12.48;;;8.93;;
35606;SDS011;21729;58.392;15.656;2023-02-15T00:29:10;12.18;;;8.68;;
35606;SDS011;21729;58.392;15.656;2023-02-15T00:31:38;11.93;;;8.52;;
35606;SDS011;21729;58.392;15.656;2023-02-15T00:34:06;11.95;;;8.93;;
35606;SDS011;21729;58.392;15.656;2023-02-15T00:36:36;12.93;;;9.45;;
35606;SDS011;21729;58.392;15.656;2023-02-15T00:39:04;13.07;;;8.80;;
35606;SDS011;21729;58.392;15.656;2023-02-15T00:41:33;11.80;;;9.00;;
35606;SDS011;21729;58.392;15.656;2023-02-15T00:44:00;11.50;;;8.75;;
35606;SDS011;21729;58.392;15.656;2023-02-15T00:46:27;11.65;;;8.77;;
35606;SDS011;21729;58.392;15.656;2023-02-15T00:48:54;12.45;;;9.00;;
35606;SDS011;21729;58.392;15.656;2023-02-15T00:51:22;12.23;;;8.63;;
35606;SDS011;21729;58.392;15.656;2023-02-15T00:53:49;12.32;;;8.90;;
35606;SDS011;21729;58.392;15.656;2023-02-15T00:56:16;13.20;;;8.50;;
35606;SDS011;21729;58.392;15.656;2023-02-15T00:58:45;12.65;;;8.68;;
35606;SDS011;21729;58.392;15.656;2023-02-15T01:01:12;11.68;;;8.90;;
35606;SDS011;21729;58.392;15.656;2023-02-15T01:03:41;12.68;;;8.98;;
35606;SDS011;21729;58.392;15.656;2023-02-15T01:06:09;15.88;;;9.50;;
35606;SDS011;21729;58.392;15.656;2023-02-15T01:08:37;12.40;;;9.23;;
35606;SDS011;21729;58.392;15.656;2023-02-15T01:11:05;12.93;;;8.90;;
35606;SDS011;21729;58.392;15.656;2023-02-15T01:13:33;14.03;;;9.63;;
35606;SDS011;21729;58.392;15.656;2023-02-15T01:16:01;13.80;;;9.57;;
35606;SDS011;21729;58.392;15.656;2023-02-15T01:18:30;13.80;;;9.23;;
35606;SDS011;21729;58.392;15.656;2023-02-15T01:21:00;13.85;;;9.93;;
35606;SDS011;21729;58.392;15.656;2023-02-15T01:23:34;12.13;;;9.23;;
35606;SDS011;21729;58.392;15.656;2023-02-15T01:26:02;11.90;;;9.13;;
35606;SDS011;21729;58.392;15.656;2023-02-15T01:28:29;14.45;;;9.73;;
35606;SDS011;21729;58.392;15.656;2023-02-15T01:30:57;12.88;;;9.32;;
35606;SDS011;21729;58.392;15.656;2023-02-15T01:33:25;12.95;;;9.20;;
35606;SDS011;21729;58.392;15.656;2023-02-15T01:35:55;12.00;;;8.88;;
35606;SDS011;21729;58.392;15.656;2023-02-15T01:38:23;11.30;;;8.10;;
35606;SDS011;21729;58.392;15.656;2023-02-15T01:40:50;11.32;;;8.43;;
35606;SDS011;21729;58.392;15.656;2023-02-15T01:43:17;10.35;;;8.48;;
35606;SDS011;21729;58.392;15.656;2023-02-15T01:45:45;12.37;;;8.63;;
35606;SDS011;21729;58.392;15.656;2023-02-15T01:48:17;11.63;;;8.43;;
35606;SDS011;21729;58.392;15.656;2023-02-15T01:50:49;11.93;;;8.35;;
35606;SDS011;21729;58.392;15.656;2023-02-15T01:53:20;13.40;;;8.32;;
35606;SDS011;21729;58.392;15.656;2023-02-15T01:55:52;10.82;;;7.90;;
35606;SDS011;21729;58.392;15.656;2023-02-15T01:58:22;10.85;;;8.20;;
35606;SDS011;21729;58.392;15.656;2023-02-15T02:00:51;11.27;;;8.07;;
35606;SDS011;21729;58.392;15.656;2023-02-15T02:03:20;11.60;;;7.93;;
35606;SDS011;21729;58.392;15.656;2023-02-15T02:06:00;11.70;;;8.35;;
35606;SDS011;21729;58.392;15.656;2023-02-15T02:08:27;13.43;;;8.80;;
35606;SDS011;21729;58.392;15.656;2023-02-15T02:10:54;11.70;;;8.45;;
35606;SDS011;21729;58.392;15.656;2023-02-15T02:13:21;12.20;;;8.75;;
35606;SDS011;21729;58.392;15.656;2023-02-15T02:15:51;11.65;;;8.07;;
35606;SDS011;21729;58.392;15.656;2023-02-15T02:18:28;11.25;;;7.80;;
35606;SDS011;21729;58.392;15.656;2023-02-15T02:21:23;11.30;;;8.85;;
35606;SDS011;21729;58.392;15.656;2023-02-15T02:24:16;13.55;;;8.60;;
35606;SDS011;21729;58.392;15.656;2023-02-15T02:27:05;12.40;;;8.40;;
35606;SDS011;21729;58.392;15.656;2023-02-15T02:32:53;12.15;;;8.43;;
35606;SDS011;21729;58.392;15.656;2023-02-15T02:35:44;12.45;;;8.63;;
35606;SDS011;21729;58.392;15.656;2023-02-15T02:38:19;12.18;;;8.20;;
35606;SDS011;21729;58.392;15.656;2023-02-15T02:40:55;12.85;;;9.07;;
35606;SDS011;21729;58.392;15.656;2023-02-15T02:43:34;11.55;;;8.20;;
35606;SDS011;21729;58.392;15.656;2023-02-15T02:46:07;11.30;;;7.95;;
35606;SDS011;21729;58.392;15.656;2023-02-15T02:48:41;15.30;;;9.38;;
35606;SDS011;21729;58.392;15.656;2023-02-15T02:51:08;13.27;;;9.57;;
35606;SDS011;21729;58.392;15.656;2023-02-15T02:53:35;14.30;;;9.27;;
35606;SDS011;21729;58.392;15.656;2023-02-15T02:56:03;14.25;;;9.65;;
35606;SDS011;21729;58.392;15.656;2023-02-15T02:58:35;14.10;;;9.70;;
35606;SDS011;21729;58.392;15.656;2023-02-15T03:01:08;14.27;;;9.82;;
35606;SDS011;21729;58.392;15.656;2023-02-15T03:03:48;14.20;;;9.35;;
35606;SDS011;21729;58.392;15.656;2023-02-15T03:06:19;15.18;;;10.23;;
35606;SDS011;21729;58.392;15.656;2023-02-15T03:08:56;14.75;;;10.70;;
35606;SDS011;21729;58.392;15.656;2023-02-15T03:11:27;13.50;;;9.38;;
35606;SDS011;21729;58.392;15.656;2023-02-15T03:13:55;14.73;;;9.95;;
35606;SDS011;21729;58.392;15.656;2023-02-15T03:16:23;14.35;;;10.10;;
35606;SDS011;21729;58.392;15.656;2023-02-15T03:18:54;16.35;;;10.50;;
35606;SDS011;21729;58.392;15.656;2023-02-15T03:21:31;15.18;;;10.55;;
35606;SDS011;21729;58.392;15.656;2023-02-15T03:24:02;15.35;;;9.95;;
35606;SDS011;21729;58.392;15.656;2023-02-15T03:26:34;15.88;;;10.75;;
35606;SDS011;21729;58.392;15.656;2023-02-15T03:29:02;15.15;;;10.20;;
35606;SDS011;21729;58.392;15.656;2023-02-15T03:31:32;13.75;;;9.88;;
35606;SDS011;21729;58.392;15.656;2023-02-15T03:34:06;15.83;;;10.30;;
35606;SDS011;21729;58.392;15.656;2023-02-15T03:36:39;15.88;;;10.60;;
35606;SDS011;21729;58.392;15.656;2023-02-15T03:39:13;15.15;;;10.00;;
35606;SDS011;21729;58.392;15.656;2023-02-15T03:41:48;15.20;;;9.70;;
35606;SDS011;21729;58.392;15.656;2023-02-15T03:44:23;16.33;;;10.53;;
35606;SDS011;21729;58.392;15.656;2023-02-15T03:46:56;14.90;;;10.55;;
35606;SDS011;21729;58.392;15.656;2023-02-15T03:49:30;16.13;;;10.35;;
35606;SDS011;21729;58.392;15.656;2023-02-15T03:52:03;14.38;;;9.70;;
35606;SDS011;21729;58.392;15.656;2023-02-15T03:54:32;14.85;;;9.77;;
35606;SDS011;21729;58.392;15.656;2023-02-15T03:57:13;16.13;;;10.10;;
35606;SDS011;21729;58.392;15.656;2023-02-15T04:00:00;17.73;;;9.88;;
35606;SDS011;21729;58.392;15.656;2023-02-15T04:05:50;13.57;;;9.15;;
35606;SDS011;21729;58.392;15.656;2023-02-15T04:08:17;14.57;;;9.75;;
35606;SDS011;21729;58.392;15.656;2023-02-15T04:10:44;12.02;;;8.48;;
35606;SDS011;21729;58.392;15.656;2023-02-15T04:13:21;11.13;;;8.23;;
35606;SDS011;21729;58.392;15.656;2023-02-15T04:15:50;12.43;;;8.60;;
35606;SDS011;21729;58.392;15.656;2023-02-15T04:18:31;12.55;;;7.75;;
35606;SDS011;21729;58.392;15.656;2023-02-15T04:21:19;12.05;;;7.97;;
35606;SDS011;21729;58.392;15.656;2023-02-15T04:24:05;11.80;;;8.00;;
35606;SDS011;21729;58.392;15.656;2023-02-15T04:26:49;12.98;;;8.25;;
35606;SDS011;21729;58.392;15.656;2023-02-15T04:29:17;10.95;;;7.53;;
35606;SDS011;21729;58.392;15.656;2023-02-15T04:31:45;10.60;;;7.50;;
35606;SDS011;21729;58.392;15.656;2023-02-15T04:34:12;10.68;;;7.38;;
35606;SDS011;21729;58.392;15.656;2023-02-15T04:36:41;11.45;;;7.82;;
35606;SDS011;21729;58.392;15.656;2023-02-15T04:39:08;10.93;;;7.20;;
35606;SDS011;21729;58.392;15.656;2023-02-15T04:41:38;10.88;;;7.47;;
35606;SDS011;21729;58.392;15.656;2023-02-15T04:44:05;10.18;;;6.88;;
35606;SDS011;21729;58.392;15.656;2023-02-15T04:46:32;11.30;;;7.63;;
35606;SDS011;21729;58.392;15.656;2023-02-15T04:49:00;11.75;;;7.53;;
35606;SDS011;21729;58.392;15.656;2023-02-15T04:51:27;10.75;;;7.65;;
35606;SDS011;21729;58.392;15.656;2023-02-15T04:53:56;11.05;;;7.50;;
35606;SDS011;21729;58.392;15.656;2023-02-15T04:56:23;11.63;;;7.30;;
35606;SDS011;21729;58.392;15.656;2023-02-15T04:58:50;10.63;;;7.38;;
35606;SDS011;21729;58.392;15.656;2023-02-15T05:01:17;13.23;;;7.25;;
35606;SDS011;21729;58.392;15.656;2023-02-15T05:03:45;11.60;;;7.32;;
35606;SDS011;21729;58.392;15.656;2023-02-15T05:06:12;10.63;;;7.05;;
35606;SDS011;21729;58.392;15.656;2023-02-15T05:08:39;10.23;;;6.97;;
35606;SDS011;21729;58.392;15.656;2023-02-15T05:11:07;8.98;;;6.40;;
35606;SDS011;21729;58.392;15.656;2023-02-15T05:13:34;10.07;;;6.95;;
35606;SDS011;21729;58.392;15.656;2023-02-15T05:16:01;11.32;;;7.10;;
35606;SDS011;21729;58.392;15.656;2023-02-15T05:18:29;11.30;;;7.23;;
35606;SDS011;21729;58.392;15.656;2023-02-15T05:20:56;9.40;;;5.95;;
35606;SDS011;21729;58.392;15.656;2023-02-15T05:23:23;9.93;;;6.65;;
35606;SDS011;21729;58.392;15.656;2023-02-15T05:25:50;9.85;;;7.07;;
35606;SDS011;21729;58.392;15.656;2023-02-15T05:28:37;14.00;;;7.20;;
35606;SDS011;21729;58.392;15.656;2023-02-15T05:31:06;9.48;;;6.47;;
35606;SDS011;21729;58.392;15.656;2023-02-15T05:33:34;9.95;;;7.18;;
35606;SDS011;21729;58.392;15.656;2023-02-15T05:36:02;12.48;;;7.05;;
35606;SDS011;21729;58.392;15.656;2023-02-15T05:38:30;9.75;;;6.65;;
35606;SDS011;21729;58.392;15.656;2023-02-15T05:40:57;11.32;;;6.68;;
35606;SDS011;21729;58.392;15.656;2023-02-15T05:43:25;10.50;;;6.73;;
35606;SDS011;21729;58.392;15.656;2023-02-15T05:45:54;10.32;;;7.25;;
35606;SDS011;21729;58.392;15.656;2023-02-15T05:48:21;9.90;;;6.80;;
35606;SDS011;21729;58.392;15.656;2023-02-15T05:50:56;10.73;;;7.20;;
35606;SDS011;21729;58.392;15.656;2023-02-15T05:53:24;12.98;;;7.10;;
35606;SDS011;21729;58.392;15.656;2023-02-15T05:55:51;11.45;;;7.28;;
35606;SDS011;21729;58.392;15.656;2023-02-15T05:58:19;10.10;;;7.35;;
35606;SDS011;21729;58.392;15.656;2023-02-15T06:00:46;11.15;;;7.07;;
35606;SDS011;21729;58.392;15.656;2023-02-15T06:03:14;11.68;;;7.43;;
35606;SDS011;21729;58.392;15.656;2023-02-15T06:05:41;10.80;;;7.15;;
35606;SDS011;21729;58.392;15.656;2023-02-15T06:08:08;9.50;;;7.07;;
35606;SDS011;21729;58.392;15.656;2023-02-15T06:10:36;11.33;;;7.03;;
35606;SDS011;21729;58.392;15.656;2023-02-15T06:13:05;10.93;;;6.75;;
35606;SDS011;21729;58.392;15.656;2023-02-15T06:15:32;9.77;;;6.88;;
35606;SDS011;21729;58.392;15.656;2023-02-15T06:18:00;9.35;;;6.55;;
35606;SDS011;21729;58.392;15.656;2023-02-15T06:20:28;10.25;;;6.72;;
35606;SDS011;21729;58.392;15.656;2023-02-15T06:22:55;9.43;;;6.43;;
35606;SDS011;21729;58.392;15.656;2023-02-15T06:25:22;10.35;;;6.78;;
35606;SDS011;21729;58.392;15.656;2023-02-15T06:27:49;8.02;;;5.80;;
35606;SDS011;21729;58.392;15.656;2023-02-15T06:30:17;10.02;;;6.80;;
35606;SDS011;21729;58.392;15.656;2023-02-15T06:32:44;10.15;;;6.63;;
35606;SDS011;21729;58.392;15.656;2023-02-15T06:35:11;10.27;;;6.65;;
35606;SDS011;21729;58.392;15.656;2023-02-15T06:37:40;9.63;;;6.47;;
35606;SDS011;21729;58.392;15.656;2023-02-15T06:40:07;10.30;;;6.88;;
35606;SDS011;21729;58.392;15.656;2023-02-15T06:42:35;11.00;;;6.82;;
35606;SDS011;21729;58.392;15.656;2023-02-15T06:45:02;9.60;;;6.18;;
35606;SDS011;21729;58.392;15.656;2023-02-15T06:47:29;13.55;;;7.07;;
35606;SDS011;21729;58.392;15.656;2023-02-15T06:49:56;11.75;;;6.70;;
35606;SDS011;21729;58.392;15.656;2023-02-15T06:52:24;10.77;;;6.85;;
35606;SDS011;21729;58.392;15.656;2023-02-15T06:54:52;10.27;;;6.57;;
35606;SDS011;21729;58.392;15.656;2023-02-15T06:57:19;11.57;;;6.90;;
35606;SDS011;21729;58.392;15.656;2023-02-15T06:59:46;10.20;;;7.00;;
35606;SDS011;21729;58.392;15.656;2023-02-15T07:02:13;10.50;;;6.72;;
35606;SDS011;21729;58.392;15.656;2023-02-15T07:04:41;12.02;;;7.15;;
35606;SDS011;21729;58.392;15.656;2023-02-15T07:07:08;9.65;;;6.47;;
35606;SDS011;21729;58.392;15.656;2023-02-15T07:09:36;11.02;;;6.50;;
35606;SDS011;21729;58.392;15.656;2023-02-15T07:12:05;9.38;;;6.43;;
35606;SDS011;21729;58.392;15.656;2023-02-15T07:14:50;10.00;;;6.30;;
35606;SDS011;21729;58.392;15.656;2023-02-15T07:17:18;9.82;;;6.43;;
35606;SDS011;21729;58.392;15.656;2023-02-15T07:19:45;9.27;;;6.25;;
35606;SDS011;21729;58.392;15.656;2023-02-15T07:22:12;10.95;;;6.20;;
35606;SDS011;21729;58.392;15.656;2023-02-15T07:24:39;9.38;;;6.03;;
35606;SDS011;21729;58.392;15.656;2023-02-15T07:27:07;9.10;;;5.93;;
35606;SDS011;21729;58.392;15.656;2023-02-15T07:29:35;10.00;;;6.45;;
35606;SDS011;21729;58.392;15.656;2023-02-15T07:32:02;9.63;;;5.80;;
35606;SDS011;21729;58.392;15.656;2023-02-15T07:34:29;9.87;;;5.73;;
35606;SDS011;21729;58.392;15.656;2023-02-15T07:36:58;8.52;;;6.00;;
35606;SDS011;21729;58.392;15.656;2023-02-15T07:39:25;8.82;;;5.68;;
35606;SDS011;21729;58.392;15.656;2023-02-15T07:41:52;9.40;;;5.90;;
35606;SDS011;21729;58.392;15.656;2023-02-15T07:44:21;8.93;;;5.97;;
35606;SDS011;21729;58.392;15.656;2023-02-15T07:46:48;8.53;;;5.93;;
35606;SDS011;21729;58.392;15.656;2023-02-15T07:49:15;8.30;;;5.80;;
35606;SDS011;21729;58.392;15.656;2023-02-15T07:51:42;8.25;;;5.55;;
35606;SDS011;21729;58.392;15.656;2023-02-15T07:54:09;8.05;;;5.90;;
35606;SDS011;21729;58.392;15.656;2023-02-15T07:56:36;7.93;;;5.55;;
35606;SDS011;21729;58.392;15.656;2023-02-15T07:59:04;8.27;;;5.75;;
35606;SDS011;21729;58.392;15.656;2023-02-15T08:01:33;8.20;;;5.70;;
35606;SDS011;21729;58.392;15.656;2023-02-15T08:04:02;9.05;;;5.70;;
35606;SDS011;21729;58.392;15.656;2023-02-15T08:06:31;9.02;;;5.97;;
35606;SDS011;21729;58.392;15.656;2023-02-15T08:08:59;9.57;;;6.05;;
35606;SDS011;21729;58.392;15.656;2023-02-15T08:11:27;10.00;;;6.40;;
35606;SDS011;21729;58.392;15.656;2023-02-15T08:13:58;8.45;;;5.65;;
35606;SDS011;21729;58.392;15.656;2023-02-15T08:16:28;10.23;;;6.00;;
35606;SDS011;21729;58.392;15.656;2023-02-15T08:18:59;8.82;;;6.35;;
35606;SDS011;21729;58.392;15.656;2023-02-15T08:21:28;8.15;;;5.57;;
35606;SDS011;21729;58.392;15.656;2023-02-15T08:23:56;7.82;;;5.90;;
35606;SDS011;21729;58.392;15.656;2023-02-15T08:26:24;7.97;;;5.80;;
35606;SDS011;21729;58.392;15.656;2023-02-15T08:28:52;9.70;;;6.07;;
35606;SDS011;21729;58.392;15.656;2023-02-15T08:31:19;8.60;;;6.25;;
35606;SDS011;21729;58.392;15.656;2023-02-15T08:33:47;7.95;;;5.55;;
35606;SDS011;21729;58.392;15.656;2023-02-15T08:36:17;10.55;;;5.80;;
35606;SDS011;21729;58.392;15.656;2023-02-15T08:38:45;7.35;;;5.82;;
35606;SDS011;21729;58.392;15.656;2023-02-15T08:41:13;9.57;;;5.80;;
35606;SDS011;21729;58.392;15.656;2023-02-15T08:43:42;7.15;;;5.20;;
35606;SDS011;21729;58.392;15.656;2023-02-15T08:46:10;11.13;;;6.43;;
35606;SDS011;21729;58.392;15.656;2023-02-15T08:48:37;9.43;;;5.87;;
35606;SDS011;21729;58.392;15.656;2023-02-15T08:51:06;9.10;;;6.15;;
35606;SDS011;21729;58.392;15.656;2023-02-15T08:53:37;9.13;;;5.85;;
35606;SDS011;21729;58.392;15.656;2023-02-15T08:56:04;11.05;;;6.43;;
35606;SDS011;21729;58.392;15.656;2023-02-15T08:58:32;9.95;;;6.88;;
35606;SDS011;21729;58.392;15.656;2023-02-15T09:31:16;11.55;;;8.25;;
35606;SDS011;21729;58.392;15.656;2023-02-15T09:33:45;10.82;;;7.78;;
35606;SDS011;21729;58.392;15.656;2023-02-15T09:36:14;12.35;;;8.68;;
35606;SDS011;21729;58.392;15.656;2023-02-15T09:38:43;12.25;;;8.27;;
35606;SDS011;21729;58.392;15.656;2023-02-15T09:41:19;11.77;;;9.00;;
35606;SDS011;21729;58.392;15.656;2023-02-15T09:44:13;13.23;;;9.33;;
35606;SDS011;21729;58.392;15.656;2023-02-15T09:46:59;12.48;;;8.93;;
35606;SDS011;21729;58.392;15.656;2023-02-15T09:49:47;12.48;;;8.98;;
35606;SDS011;21729;58.392;15.656;2023-02-15T09:52:25;12.52;;;9.50;;
35606;SDS011;21729;58.392;15.656;2023-02-15T09:57:49;12.00;;;9.00;;
35606;SDS011;21729;58.392;15.656;2023-02-15T10:00:27;12.60;;;8.90;;
35606;SDS011;21729;58.392;15.656;2023-02-15T10:03:10;12.00;;;8.93;;
35606;SDS011;21729;58.392;15.656;2023-02-15T10:05:50;14.02;;;9.48;;
35606;SDS011;21729;58.392;15.656;2023-02-15T10:08:41;12.75;;;9.43;;
35606;SDS011;21729;58.392;15.656;2023-02-15T10:11:31;13.60;;;9.60;;
35606;SDS011;21729;58.392;15.656;2023-02-15T10:14:17;13.70;;;9.48;;
35606;SDS011;21729;58.392;15.656;2023-02-15T10:17:05;13.68;;;9.02;;
35606;SDS011;21729;58.392;15.656;2023-02-15T10:19:44;12.47;;;9.10;;
35606;SDS011;21729;58.392;15.656;2023-02-15T10:22:26;14.03;;;9.47;;
35606;SDS011;21729;58.392;15.656;2023-02-15T10:25:04;12.40;;;9.32;;
35606;SDS011;21729;58.392;15.656;2023-02-15T10:27:43;14.02;;;9.48;;
35606;SDS011;21729;58.392;15.656;2023-02-15T10:30:12;12.80;;;9.02;;
35606;SDS011;21729;58.392;15.656;2023-02-15T10:32:42;13.40;;;9.43;;
35606;SDS011;21729;58.392;15.656;2023-02-15T10:35:22;12.67;;;8.90;;
35606;SDS011;21729;58.392;15.656;2023-02-15T10:38:06;14.40;;;9.27;;
35606;SDS011;21729;58.392;15.656;2023-02-15T10:40:46;11.65;;;9.13;;
35606;SDS011;21729;58.392;15.656;2023-02-15T10:43:30;13.35;;;9.80;;
35606;SDS011;21729;58.392;15.656;2023-02-15T10:46:12;11.85;;;9.13;;
35606;SDS011;21729;58.392;15.656;2023-02-15T10:49:09;12.95;;;9.23;;
35606;SDS011;21729;58.392;15.656;2023-02-15T10:51:53;11.98;;;8.75;;
35606;SDS011;21729;58.392;15.656;2023-02-15T10:54:28;13.57;;;8.90;;
35606;SDS011;21729;58.392;15.656;2023-02-15T10:57:03;12.02;;;8.52;;
35606;SDS011;21729;58.392;15.656;2023-02-15T10:59:40;13.98;;;9.70;;
35606;SDS011;21729;58.392;15.656;2023-02-15T11:02:20;14.13;;;8.85;;
35606;SDS011;21729;58.392;15.656;2023-02-15T11:04:53;13.02;;;9.20;;
35606;SDS011;21729;58.392;15.656;2023-02-15T11:07:32;13.90;;;9.15;;
35606;SDS011;21729;58.392;15.656;2023-02-15T11:10:05;13.27;;;8.75;;
35606;SDS011;21729;58.392;15.656;2023-02-15T11:12:49;14.30;;;9.17;;
35606;SDS011;21729;58.392;15.656;2023-02-15T11:15:17;12.55;;;9.00;;
35606;SDS011;21729;58.392;15.656;2023-02-15T11:17:55;13.20;;;8.70;;
35606;SDS011;21729;58.392;15.656;2023-02-15T11:20:27;12.00;;;8.55;;
35606;SDS011;21729;58.392;15.656;2023-02-15T11:22:59;13.90;;;9.55;;
35606;SDS011;21729;58.392;15.656;2023-02-15T11:25:29;12.30;;;9.50;;
35606;SDS011;21729;58.392;15.656;2023-02-15T11:27:58;11.75;;;8.95;;
35606;SDS011;21729;58.392;15.656;2023-02-15T11:30:35;14.18;;;9.55;;
35606;SDS011;21729;58.392;15.656;2023-02-15T11:33:12;13.48;;;9.32;;
35606;SDS011;21729;58.392;15.656;2023-02-15T11:35:47;12.52;;;9.02;;
35606;SDS011;21729;58.392;15.656;2023-02-15T11:38:19;11.98;;;8.88;;
35606;SDS011;21729;58.392;15.656;2023-02-15T11:40:49;14.05;;;8.85;;
35606;SDS011;21729;58.392;15.656;2023-02-15T11:43:20;12.10;;;8.57;;
35606;SDS011;21729;58.392;15.656;2023-02-15T11:45:52;13.30;;;9.05;;
35606;SDS011;21729;58.392;15.656;2023-02-15T11:48:19;13.48;;;9.23;;
35606;SDS011;21729;58.392;15.656;2023-02-15T11:50:47;12.48;;;8.80;;
35606;SDS011;21729;58.392;15.656;2023-02-15T11:53:14;13.63;;;8.50;;
35606;SDS011;21729;58.392;15.656;2023-02-15T11:55:46;13.70;;;9.02;;
35606;SDS011;21729;58.392;15.656;2023-02-15T11:58:22;12.40;;;8.68;;
35606;SDS011;21729;58.392;15.656;2023-02-15T12:00:56;15.03;;;9.10;;
35606;SDS011;21729;58.392;15.656;2023-02-15T12:03:29;12.83;;;8.87;;
35606;SDS011;21729;58.392;15.656;2023-02-15T12:06:06;15.90;;;9.65;;
35606;SDS011;21729;58.392;15.656;2023-02-15T12:08:39;15.10;;;8.85;;
35606;SDS011;21729;58.392;15.656;2023-02-15T12:11:11;15.02;;;9.05;;
35606;SDS011;21729;58.392;15.656;2023-02-15T12:13:53;13.50;;;8.80;;
35606;SDS011;21729;58.392;15.656;2023-02-15T12:16:22;12.82;;;8.27;;
35606;SDS011;21729;58.392;15.656;2023-02-15T12:18:50;13.35;;;8.65;;
35606;SDS011;21729;58.392;15.656;2023-02-15T12:21:25;14.70;;;8.75;;
35606;SDS011;21729;58.392;15.656;2023-02-15T12:23:55;13.87;;;8.70;;
35606;SDS011;21729;58.392;15.656;2023-02-15T12:26:28;15.18;;;9.02;;
35606;SDS011;21729;58.392;15.656;2023-02-15T12:28:57;15.13;;;9.07;;
35606;SDS011;21729;58.392;15.656;2023-02-15T12:31:27;15.30;;;9.45;;
35606;SDS011;21729;58.392;15.656;2023-02-15T12:34:01;14.45;;;8.88;;
35606;SDS011;21729;58.392;15.656;2023-02-15T12:36:40;14.13;;;8.90;;
35606;SDS011;21729;58.392;15.656;2023-02-15T12:39:16;14.38;;;9.20;;
35606;SDS011;21729;58.392;15.656;2023-02-15T12:41:56;15.13;;;8.98;;
35606;SDS011;21729;58.392;15.656;2023-02-15T12:44:26;14.93;;;8.50;;
35606;SDS011;21729;58.392;15.656;2023-02-15T12:46:55;14.13;;;8.27;;
35606;SDS011;21729;58.392;15.656;2023-02-15T12:49:24;13.10;;;8.40;;
35606;SDS011;21729;58.392;15.656;2023-02-15T12:51:52;14.60;;;8.45;;
35606;SDS011;21729;58.392;15.656;2023-02-15T12:54:34;14.32;;;8.40;;
35606;SDS011;21729;58.392;15.656;2023-02-15T12:57:17;13.18;;;7.90;;
35606;SDS011;21729;58.392;15.656;2023-02-15T12:59:50;14.70;;;8.50;;
35606;SDS011;21729;58.392;15.656;2023-02-15T13:02:21;13.50;;;7.93;;
35606;SDS011;21729;58.392;15.656;2023-02-15T13:04:53;14.35;;;8.10;;
35606;SDS011;21729;58.392;15.656;2023-02-15T13:07:22;14.75;;;8.15;;
35606;SDS011;21729;58.392;15.656;2023-02-15T13:09:51;16.30;;;8.55;;
35606;SDS011;21729;58.392;15.656;2023-02-15T13:12:21;14.77;;;9.00;;
35606;SDS011;21729;58.392;15.656;2023-02-15T13:14:51;15.52;;;8.88;;
35606;SDS011;21729;58.392;15.656;2023-02-15T13:17:21;15.60;;;8.70;;
35606;SDS011;21729;58.392;15.656;2023-02-15T13:19:54;15.13;;;8.60;;
35606;SDS011;21729;58.392;15.656;2023-02-15T13:22:25;15.60;;;8.83;;
35606;SDS011;21729;58.392;15.656;2023-02-15T13:24:58;17.00;;;9.10;;
35606;SDS011;21729;58.392;15.656;2023-02-15T13:27:34;15.57;;;8.50;;
35606;SDS011;21729;58.392;15.656;2023-02-15T13:30:03;15.98;;;8.52;;
35606;SDS011;21729;58.392;15.656;2023-02-15T13:32:51;14.88;;;8.45;;
35606;SDS011;21729;58.392;15.656;2023-02-15T13:35:20;16.73;;;8.75;;
35606;SDS011;21729;58.392;15.656;2023-02-15T13:37:55;16.60;;;8.85;;
35606;SDS011;21729;58.392;15.656;2023-02-15T13:40:33;15.35;;;8.30;;
35606;SDS011;21729;58.392;15.656;2023-02-15T13:43:13;16.00;;;8.65;;
35606;SDS011;21729;58.392;15.656;2023-02-15T13:45:53;14.35;;;8.15;;
35606;SDS011;21729;58.392;15.656;2023-02-15T13:48:29;16.08;;;8.25;;
35606;SDS011;21729;58.392;15.656;2023-02-15T13:51:09;15.38;;;7.97;;
35606;SDS011;21729;58.392;15.656;2023-02-15T13:53:52;15.45;;;8.07;;
35606;SDS011;21729;58.392;15.656;2023-02-15T13:56:33;14.25;;;7.35;;
35606;SDS011;21729;58.392;15.656;2023-02-15T13:59:19;16.92;;;8.50;;
35606;SDS011;21729;58.392;15.656;2023-02-15T14:02:03;15.95;;;7.90;;
35606;SDS011;21729;58.392;15.656;2023-02-15T14:04:53;16.67;;;8.63;;
35606;SDS011;21729;58.392;15.656;2023-02-15T14:07:44;15.65;;;8.38;;
35606;SDS011;21729;58.392;15.656;2023-02-15T14:10:25;15.00;;;7.30;;
35606;SDS011;21729;58.392;15.656;2023-02-15T14:13:20;15.57;;;7.10;;
35606;SDS011;21729;58.392;15.656;2023-02-15T14:16:08;16.45;;;8.10;;
35606;SDS011;21729;58.392;15.656;2023-02-15T14:18:41;14.50;;;7.63;;
35606;SDS011;21729;58.392;15.656;2023-02-15T14:21:15;15.30;;;7.67;;
35606;SDS011;21729;58.392;15.656;2023-02-15T14:23:56;14.93;;;7.43;;
35606;SDS011;21729;58.392;15.656;2023-02-15T14:26:41;15.75;;;7.65;;
35606;SDS011;21729;58.392;15.656;2023-02-15T14:29:19;15.25;;;7.60;;
35606;SDS011;21729;58.392;15.656;2023-02-15T14:31:54;15.75;;;7.40;;
35606;SDS011;21729;58.392;15.656;2023-02-15T14:34:24;15.63;;;7.68;;
35606;SDS011;21729;58.392;15.656;2023-02-15T14:36:56;15.02;;;7.35;;
35606;SDS011;21729;58.392;15.656;2023-02-15T14:39:30;15.73;;;7.82;;
35606;SDS011;21729;58.392;15.656;2023-02-15T14:42:21;17.03;;;7.87;;
35606;SDS011;21729;58.392;15.656;2023-02-15T14:44:55;15.07;;;6.93;;
35606;SDS011;21729;58.392;15.656;2023-02-15T14:47:29;18.07;;;7.80;;
35606;SDS011;21729;58.392;15.656;2023-02-15T14:58:59;14.03;;;7.30;;
35606;SDS011;21729;58.392;15.656;2023-02-15T15:01:39;17.63;;;7.53;;
35606;SDS011;21729;58.392;15.656;2023-02-15T15:04:09;16.35;;;7.85;;
35606;SDS011;21729;58.392;15.656;2023-02-15T15:06:39;14.77;;;7.40;;
35606;SDS011;21729;58.392;15.656;2023-02-15T15:09:12;16.55;;;7.47;;
35606;SDS011;21729;58.392;15.656;2023-02-15T15:11:47;15.80;;;7.78;;
35606;SDS011;21729;58.392;15.656;2023-02-15T15:17:11;15.85;;;7.53;;
35606;SDS011;21729;58.392;15.656;2023-02-15T15:20:02;15.32;;;7.20;;
35606;SDS011;21729;58.392;15.656;2023-02-15T15:22:38;14.32;;;7.32;;
35606;SDS011;21729;58.392;15.656;2023-02-15T15:25:10;14.10;;;7.40;;
35606;SDS011;21729;58.392;15.656;2023-02-15T15:27:58;17.90;;;7.87;;
35606;SDS011;21729;58.392;15.656;2023-02-15T15:40:11;16.70;;;8.05;;
35606;SDS011;21729;58.392;15.656;2023-02-15T15:43:11;16.73;;;8.40;;
35606;SDS011;21729;58.392;15.656;2023-02-15T15:46:15;18.33;;;8.20;;
35606;SDS011;21729;58.392;15.656;2023-02-15T15:48:59;16.95;;;8.27;;
35606;SDS011;21729;58.392;15.656;2023-02-15T15:51:29;17.00;;;8.75;;
35606;SDS011;21729;58.392;15.656;2023-02-15T15:53:59;19.77;;;8.85;;
35606;SDS011;21729;58.392;15.656;2023-02-15T15:56:29;17.98;;;8.48;;